Terminal Aerodrome Forecast
Issued by NWS

Home | Current Version | Previous Version | Text Only | Print | Product List | Glossary On
Versions: 1 2 3 4 5 6 7 8 9 10 11 12 13 14 15 16
000
FTUS42 KTAE 201100
TAFVLD
TAF
KVLD 201128Z 2012/2112 00000KT P6SM BKN040
     FM201400 12004KT P6SM SCT040
     FM201900 18004KT P6SM SCT050 SCT250=

USA.gov is the U.S. government's official web portal to all federal, state and local government web resources and services.